createdAt,value
2017-10-18T00:00:48.532Z,119.30
2017-10-18T00:03:14.609Z,116.13
2017-10-18T00:05:41.512Z,109.83
2017-10-18T00:08:07.623Z,128.33
2017-10-18T00:10:33.828Z,113.17
2017-10-18T00:13:00.033Z,125.87
2017-10-18T00:15:26.157Z,135.97
2017-10-18T00:17:52.298Z,116.37
2017-10-18T00:20:18.464Z,110.93
2017-10-18T00:22:44.576Z,120.97
2017-10-18T00:25:10.683Z,125.73
2017-10-18T00:27:37.635Z,137.53
2017-10-18T00:30:04.525Z,135.90
2017-10-18T00:32:30.697Z,127.40
2017-10-18T00:34:56.902Z,121.43
2017-10-18T00:37:22.993Z,133.47
2017-10-18T00:39:49.195Z,119.27
2017-10-18T00:42:15.382Z,117.03
2017-10-18T00:44:42.277Z,114.50
2017-10-18T00:47:08.420Z,113.00
2017-10-18T00:49:34.602Z,115.10
2017-10-18T00:52:00.800Z,105.70
2017-10-18T00:54:27.654Z,108.47
2017-10-18T00:56:53.812Z,109.20
2017-10-18T00:59:19.880Z,110.47
2017-10-18T01:01:46.059Z,116.53
2017-10-18T01:04:12.222Z,108.57
2017-10-18T01:06:38.340Z,110.83
2017-10-18T01:09:04.478Z,111.37
2017-10-18T01:11:30.587Z,109.17
2017-10-18T01:13:57.477Z,110.57
2017-10-18T01:16:23.596Z,106.93
2017-10-18T01:18:49.766Z,102.33
2017-10-18T01:21:15.917Z,100.07
2017-10-18T01:23:41.985Z,107.53
2017-10-18T01:26:08.182Z,94.13
2017-10-18T01:28:34.327Z,96.40
2017-10-18T01:31:00.542Z,112.80
2017-10-18T01:33:26.724Z,112.00
2017-10-18T01:35:53.166Z,89.47
2017-10-18T01:38:19.252Z,99.70
2017-10-18T01:40:45.420Z,97.10
2017-10-18T01:43:11.524Z,113.47
2017-10-18T01:45:38.344Z,101.13
2017-10-18T01:48:04.546Z,100.37
2017-10-18T01:50:30.675Z,113.27
2017-10-18T01:52:56.863Z,105.57
2017-10-18T01:55:23.060Z,118.57
2017-10-18T01:57:49.134Z,118.73
2017-10-18T02:00:15.230Z,115.93
2017-10-18T02:02:41.388Z,107.67
2017-10-18T02:05:07.500Z,109.13
2017-10-18T02:07:33.633Z,105.33
2017-10-18T02:09:59.788Z,113.07
2017-10-18T02:12:26.002Z,127.20
2017-10-18T02:14:52.974Z,123.13
2017-10-18T02:17:19.140Z,134.17
2017-10-18T02:19:45.205Z,129.67
2017-10-18T02:22:11.387Z,124.50
2017-10-18T02:24:37.550Z,139.47
2017-10-18T02:27:03.727Z,135.53
2017-10-18T02:29:29.953Z,118.60
2017-10-18T02:31:56.079Z,124.20
2017-10-18T02:34:22.176Z,121.00
2017-10-18T02:36:48.335Z,143.47
2017-10-18T02:39:14.477Z,123.53
2017-10-18T02:41:40.604Z,124.13
2017-10-18T02:44:06.686Z,117.90
2017-10-18T02:46:32.818Z,130.50
2017-10-18T02:48:58.911Z,144.67
2017-10-18T02:51:25.082Z,130.43
2017-10-18T02:53:51.205Z,145.83
2017-10-18T02:56:17.328Z,125.03
2017-10-18T02:58:43.456Z,140.80
2017-10-18T03:01:09.624Z,181.80
2017-10-18T03:03:35.738Z,134.40
2017-10-18T03:06:01.804Z,152.87
2017-10-18T03:08:27.940Z,153.23
2017-10-18T03:10:54.050Z,158.43
2017-10-18T03:13:20.176Z,150.70
2017-10-18T03:15:47.059Z,146.30
2017-10-18T03:18:13.212Z,158.70
2017-10-18T03:20:39.289Z,155.00
2017-10-18T03:23:05.406Z,134.97
2017-10-18T03:25:31.705Z,143.10
2017-10-18T03:27:57.864Z,159.23
2017-10-18T03:30:23.986Z,160.67
2017-10-18T03:32:50.096Z,140.03
2017-10-18T03:35:16.968Z,147.53
2017-10-18T03:37:43.140Z,151.73
2017-10-18T03:40:09.221Z,152.03
2017-10-18T03:42:35.295Z,150.23
2017-10-18T03:45:01.400Z,143.70
2017-10-18T03:47:28.210Z,146.17
2017-10-18T03:49:54.342Z,138.17
2017-10-18T03:52:20.453Z,143.90
2017-10-18T03:54:46.533Z,135.30
2017-10-18T03:57:12.597Z,140.10
2017-10-18T03:59:39.448Z,157.27
2017-10-18T04:02:05.534Z,165.87
2017-10-18T04:04:31.657Z,174.57
2017-10-18T04:06:57.752Z,173.53
2017-10-18T04:09:23.935Z,153.33
2017-10-18T04:11:50.078Z,139.33
2017-10-18T04:14:16.208Z,140.87
2017-10-18T04:16:42.340Z,159.73
2017-10-18T04:19:08.496Z,125.40
2017-10-18T04:21:34.653Z,132.47
2017-10-18T04:24:00.775Z,141.50
2017-10-18T04:26:26.862Z,165.77
2017-10-18T04:28:53.078Z,163.87
2017-10-18T04:31:19.195Z,164.13
2017-10-18T04:33:45.325Z,141.73
2017-10-18T04:36:11.493Z,164.13
2017-10-18T04:38:37.602Z,155.80
2017-10-18T04:41:03.744Z,129.30
2017-10-18T04:43:29.915Z,136.70
2017-10-18T04:45:56.041Z,155.37
2017-10-18T04:48:22.133Z,157.47
2017-10-18T04:50:49.040Z,155.03
2017-10-18T04:53:15.174Z,144.93
2017-10-18T04:55:41.267Z,147.47
2017-10-18T04:58:07.386Z,144.10
2017-10-18T05:00:33.473Z,154.17
2017-10-18T05:02:59.603Z,144.97
2017-10-18T05:05:25.760Z,143.13
2017-10-18T05:07:51.868Z,143.40
2017-10-18T05:10:17.992Z,138.53
2017-10-18T05:12:44.945Z,143.67
2017-10-18T05:15:11.829Z,143.43
2017-10-18T05:17:37.971Z,133.67
2017-10-18T05:20:04.080Z,122.00
2017-10-18T05:22:30.945Z,128.93
2017-10-18T05:24:57.045Z,136.33
2017-10-18T05:27:23.188Z,144.00
2017-10-18T05:29:49.269Z,135.63
2017-10-18T05:32:15.346Z,131.27
2017-10-18T05:34:41.486Z,123.90
2017-10-18T05:37:07.557Z,134.57
2017-10-18T05:39:34.397Z,124.00
2017-10-18T05:42:00.508Z,126.03
2017-10-18T05:44:26.584Z,133.83
2017-10-18T05:46:53.392Z,119.80
2017-10-18T05:49:19.491Z,114.30
2017-10-18T05:51:46.338Z,127.33
2017-10-18T05:54:13.186Z,136.67
2017-10-18T05:56:39.325Z,137.13
2017-10-18T05:59:06.157Z,136.17
2017-10-18T06:01:32.538Z,131.83
2017-10-18T06:03:58.782Z,126.97
2017-10-18T06:06:24.863Z,130.60
2017-10-18T06:08:51.458Z,117.20
2017-10-18T06:11:18.316Z,124.43
2017-10-18T06:13:45.124Z,118.73
2017-10-18T06:16:11.269Z,103.93
2017-10-18T06:18:37.397Z,97.07
2017-10-18T06:21:03.483Z,110.63
2017-10-18T06:23:30.325Z,100.53
2017-10-18T06:25:57.190Z,96.17
2017-10-18T06:28:24.078Z,92.63
2017-10-18T06:30:50.159Z,99.73
2017-10-18T06:33:16.261Z,91.23
2017-10-18T06:35:42.429Z,85.20
2017-10-18T06:38:08.577Z,105.27
2017-10-18T06:40:34.722Z,89.27
2017-10-18T06:43:00.830Z,89.17
2017-10-18T06:45:26.934Z,103.73
2017-10-18T06:47:53.062Z,104.27
2017-10-18T06:50:19.173Z,95.80
2017-10-18T06:52:45.290Z,91.23
2017-10-18T06:55:11.897Z,90.23
2017-10-18T06:57:38.039Z,87.57
2017-10-18T07:00:04.129Z,95.13
2017-10-18T07:02:30.245Z,96.03
2017-10-18T07:04:56.323Z,93.03
2017-10-18T07:07:23.144Z,98.87
2017-10-18T07:09:49.306Z,99.67
2017-10-18T07:12:16.145Z,80.17
2017-10-18T07:14:42.247Z,103.87
2017-10-18T07:17:08.317Z,88.43
2017-10-18T07:19:34.426Z,87.13
2017-10-18T07:22:00.519Z,85.93
2017-10-18T07:24:26.606Z,88.67
2017-10-18T07:26:52.706Z,105.07
2017-10-18T07:29:18.793Z,92.20
2017-10-18T07:31:44.894Z,91.33
2017-10-18T07:34:11.133Z,90.13
2017-10-18T07:36:37.452Z,83.83
2017-10-18T07:39:04.390Z,91.23
2017-10-18T07:41:30.529Z,102.07
2017-10-18T07:43:57.476Z,93.73
2017-10-18T07:46:23.836Z,85.53
2017-10-18T07:48:50.392Z,84.23
2017-10-18T07:51:16.672Z,93.60
2017-10-18T07:53:42.902Z,89.70
2017-10-18T07:56:09.155Z,83.00
2017-10-18T07:58:35.383Z,82.13
2017-10-18T08:01:01.466Z,79.33
2017-10-18T08:03:27.764Z,94.97
2017-10-18T08:05:54.040Z,85.50
2017-10-18T08:08:20.337Z,81.30
2017-10-18T08:10:46.618Z,85.93
2017-10-18T08:13:13.056Z,86.73
2017-10-18T08:15:39.272Z,82.00
2017-10-18T08:18:05.424Z,82.53
2017-10-18T08:20:31.774Z,81.07
2017-10-18T08:22:58.024Z,75.50
2017-10-18T08:25:24.222Z,86.17
2017-10-18T08:27:51.282Z,82.50
2017-10-18T08:30:17.662Z,74.50
2017-10-18T08:32:43.982Z,83.37
2017-10-18T08:35:10.431Z,87.43
2017-10-18T08:37:36.569Z,96.30
2017-10-18T08:40:02.887Z,70.00
2017-10-18T08:42:30.012Z,82.60
2017-10-18T08:44:56.438Z,81.23
2017-10-18T08:47:22.645Z,73.57
2017-10-18T08:49:49.142Z,73.00
2017-10-18T08:52:15.553Z,76.40
2017-10-18T08:54:41.632Z,79.70
2017-10-18T08:57:07.731Z,69.17
2017-10-18T08:59:33.813Z,77.10
2017-10-18T09:01:59.921Z,76.33
2017-10-18T09:04:26.034Z,65.47
2017-10-18T09:06:52.095Z,70.60
2017-10-18T09:09:18.157Z,74.07
2017-10-18T09:11:44.360Z,73.83
2017-10-18T09:14:10.443Z,70.43
2017-10-18T09:16:36.543Z,81.80
2017-10-18T09:19:02.730Z,72.10
2017-10-18T09:21:28.801Z,75.67
2017-10-18T09:24:01.878Z,74.93
2017-10-18T09:26:28.723Z,85.83
2017-10-18T09:28:54.813Z,85.47
2017-10-18T09:31:21.029Z,86.40
2017-10-18T09:33:47.198Z,68.80
2017-10-18T09:36:13.308Z,77.17
2017-10-18T09:38:39.363Z,72.10
2017-10-18T09:41:05.511Z,65.00
2017-10-18T09:43:31.596Z,59.93
2017-10-18T09:45:58.412Z,69.67
2017-10-18T09:48:24.518Z,68.47
2017-10-18T09:50:50.651Z,66.40
2017-10-18T09:53:16.721Z,75.43
2017-10-18T09:55:42.830Z,77.10
2017-10-18T09:58:08.947Z,68.40
2017-10-18T10:00:35.777Z,61.47
2017-10-18T10:03:01.895Z,72.50
2017-10-18T10:05:27.990Z,61.27
2017-10-18T10:07:54.081Z,50.10
2017-10-18T10:10:20.188Z,53.97
2017-10-18T10:12:46.285Z,56.00
2017-10-18T10:15:13.110Z,47.00
2017-10-18T10:17:39.209Z,64.27
2017-10-18T10:20:05.314Z,54.23
2017-10-18T10:22:32.196Z,62.60
2017-10-18T10:24:58.322Z,65.60
2017-10-18T10:27:24.391Z,60.40
2017-10-18T10:29:50.536Z,62.33
2017-10-18T10:32:16.783Z,49.77
2017-10-18T10:34:42.854Z,49.90
2017-10-18T10:37:08.973Z,51.60
2017-10-18T10:39:35.130Z,51.63
2017-10-18T10:42:01.197Z,54.83
2017-10-18T10:44:27.290Z,50.97
2017-10-18T10:46:53.439Z,59.57
2017-10-18T10:49:19.501Z,54.60
2017-10-18T10:51:45.575Z,61.50
2017-10-18T10:54:11.679Z,43.27
2017-10-18T10:56:37.740Z,56.83
2017-10-18T10:59:03.807Z,45.57
2017-10-18T11:01:29.916Z,56.73
2017-10-18T11:03:55.996Z,50.23
2017-10-18T11:06:22.837Z,49.83
2017-10-18T11:08:48.951Z,57.57
2017-10-18T11:11:15.072Z,48.33
2017-10-18T11:13:41.222Z,52.40
2017-10-18T11:16:07.355Z,47.00
2017-10-18T11:18:33.456Z,48.57
2017-10-18T11:21:00.296Z,55.37
2017-10-18T11:23:27.153Z,56.00
2017-10-18T11:25:54.026Z,40.47
2017-10-18T11:28:20.122Z,40.20
2017-10-18T11:30:46.236Z,52.47
2017-10-18T11:33:12.380Z,52.83
2017-10-18T11:35:38.483Z,49.50
2017-10-18T11:38:04.603Z,47.10
2017-10-18T11:40:31.536Z,46.93
2017-10-18T11:42:57.631Z,49.43
2017-10-18T11:45:23.778Z,51.23
2017-10-18T11:47:49.899Z,56.17
2017-10-18T11:50:15.976Z,50.47
2017-10-18T11:52:42.062Z,61.20
2017-10-18T11:55:08.923Z,49.33
2017-10-18T11:57:35.021Z,49.77
2017-10-18T12:00:01.119Z,40.37
2017-10-18T12:02:27.253Z,44.93
2017-10-18T12:04:53.350Z,54.50
2017-10-18T12:07:20.188Z,47.97
2017-10-18T12:09:46.301Z,45.93
2017-10-18T12:12:12.383Z,47.50
2017-10-18T12:14:39.208Z,45.77
2017-10-18T12:17:05.332Z,48.30
2017-10-18T12:19:31.414Z,43.17
2017-10-18T12:21:58.243Z,45.90
2017-10-18T12:24:24.358Z,37.83
2017-10-18T12:26:50.440Z,39.17
2017-10-18T12:29:16.535Z,46.73
2017-10-18T12:31:42.642Z,35.30
2017-10-18T12:34:08.782Z,42.13
2017-10-18T12:36:34.893Z,37.67
2017-10-18T12:39:01.034Z,42.90
2017-10-18T12:41:27.864Z,50.10
2017-10-18T12:43:53.958Z,58.17
2017-10-18T12:46:20.122Z,49.73
2017-10-18T12:48:46.198Z,42.90
2017-10-18T12:51:12.266Z,41.63
2017-10-18T12:53:38.368Z,43.23
2017-10-18T12:56:04.463Z,47.00
2017-10-18T12:58:30.569Z,48.70
2017-10-18T13:00:57.457Z,41.20
2017-10-18T13:03:23.599Z,52.63
2017-10-18T13:05:49.746Z,61.70
2017-10-18T13:08:15.860Z,46.57
2017-10-18T13:10:41.954Z,51.70
2017-10-18T13:13:08.040Z,44.30
2017-10-18T13:15:34.226Z,43.43
2017-10-18T13:18:00.378Z,46.03
2017-10-18T13:20:27.197Z,40.23
2017-10-18T13:22:53.303Z,39.80
2017-10-18T13:25:19.396Z,38.07
2017-10-18T13:27:45.478Z,39.23
2017-10-18T13:30:11.578Z,48.93
2017-10-18T13:32:38.396Z,43.60
2017-10-18T13:35:04.513Z,41.03
2017-10-18T13:37:30.704Z,40.87
2017-10-18T13:39:56.790Z,39.73
2017-10-18T13:42:22.876Z,45.43
2017-10-18T13:44:48.977Z,41.37
2017-10-18T13:47:15.041Z,35.23
2017-10-18T13:49:41.226Z,42.33
2017-10-18T13:52:07.330Z,38.13
2017-10-18T13:54:33.413Z,45.90
2017-10-18T13:56:59.504Z,51.83
2017-10-18T13:59:26.385Z,51.07
2017-10-18T14:01:52.484Z,48.63
2017-10-18T14:04:18.583Z,53.60
2017-10-18T14:06:44.705Z,50.50
2017-10-18T14:09:10.776Z,60.20
2017-10-18T14:11:36.874Z,51.60
2017-10-18T14:14:02.995Z,67.63
2017-10-18T14:16:29.074Z,49.80
2017-10-18T14:18:55.242Z,49.10
2017-10-18T14:21:21.390Z,57.47
2017-10-18T14:23:47.495Z,42.33
2017-10-18T14:26:13.595Z,54.77
2017-10-18T14:28:39.721Z,49.90
2017-10-18T14:31:06.563Z,49.93
2017-10-18T14:33:32.771Z,53.13
2017-10-18T14:35:58.938Z,44.53
2017-10-18T14:38:25.275Z,44.60
2017-10-18T14:40:51.369Z,68.70
2017-10-18T14:43:17.500Z,59.90
2017-10-18T14:45:43.586Z,43.23
2017-10-18T14:48:09.667Z,33.53
2017-10-18T14:50:35.777Z,40.20
2017-10-18T14:53:01.903Z,42.47
2017-10-18T14:55:27.995Z,49.37
2017-10-18T14:57:54.778Z,49.67
2017-10-18T15:00:20.877Z,47.90
2017-10-18T15:02:46.963Z,40.97
2017-10-18T15:05:13.391Z,46.87
2017-10-18T15:07:39.960Z,39.07
2017-10-18T15:10:06.797Z,40.30
2017-10-18T15:12:33.968Z,46.00
2017-10-18T15:15:00.070Z,37.57
2017-10-18T15:17:26.548Z,38.53
2017-10-18T15:19:52.779Z,48.00
2017-10-18T15:22:18.857Z,49.57
2017-10-18T15:24:45.721Z,40.57
2017-10-18T15:27:12.578Z,44.63
2017-10-18T15:29:38.671Z,47.30
2017-10-18T15:32:04.817Z,63.23
2017-10-18T15:34:30.964Z,52.80
2017-10-18T15:36:57.078Z,50.70
2017-10-18T15:39:23.198Z,54.33
2017-10-18T15:41:49.318Z,50.73
2017-10-18T15:44:15.409Z,57.63
2017-10-18T15:46:41.488Z,66.70
2017-10-18T15:49:08.346Z,63.93
2017-10-18T15:51:34.458Z,61.10
2017-10-18T15:54:00.546Z,68.03
2017-10-18T15:56:26.679Z,60.80
2017-10-18T15:58:52.758Z,60.53
2017-10-18T16:01:18.867Z,70.60
2017-10-18T16:03:45.000Z,79.07
2017-10-18T16:06:11.090Z,92.63
2017-10-18T16:08:37.157Z,70.73
2017-10-18T16:11:03.309Z,69.97
2017-10-18T16:13:29.505Z,78.13
2017-10-18T16:15:55.611Z,71.30
2017-10-18T16:18:21.732Z,73.10
2017-10-18T16:20:47.823Z,68.00
2017-10-18T16:23:13.942Z,87.87
2017-10-18T16:25:40.082Z,85.13
2017-10-18T16:28:06.167Z,73.07
2017-10-18T16:30:32.381Z,71.77
2017-10-18T16:32:58.768Z,71.20
2017-10-18T16:35:24.885Z,73.77
2017-10-18T16:37:51.005Z,71.97
2017-10-18T16:40:17.137Z,84.13
2017-10-18T16:42:43.977Z,77.57
2017-10-18T16:45:10.065Z,81.57
2017-10-18T16:47:36.440Z,79.37
2017-10-18T16:50:03.348Z,73.00
2017-10-18T16:52:29.468Z,89.57
2017-10-18T16:54:56.370Z,83.33
2017-10-18T16:57:22.490Z,76.93
2017-10-18T16:59:48.792Z,73.90
2017-10-18T17:02:14.911Z,68.97
2017-10-18T17:04:41.050Z,68.20
2017-10-18T17:07:07.175Z,73.47
2017-10-18T17:09:33.342Z,68.20
2017-10-18T17:11:59.420Z,66.63
2017-10-18T17:14:25.542Z,69.37
2017-10-18T17:16:51.696Z,72.93
2017-10-18T17:19:17.794Z,75.27
2017-10-18T17:21:43.901Z,64.67
2017-10-18T17:24:09.988Z,69.67
2017-10-18T17:26:36.869Z,74.00
2017-10-18T17:29:06.081Z,69.07
2017-10-18T17:31:32.251Z,68.17
2017-10-18T17:33:58.543Z,69.53
2017-10-18T17:36:24.734Z,86.47
2017-10-18T17:38:50.954Z,79.27
2017-10-18T17:41:17.257Z,85.57
2017-10-18T17:43:44.134Z,71.13
2017-10-18T17:46:10.234Z,96.10
2017-10-18T17:48:36.666Z,103.60
2017-10-18T17:51:04.070Z,76.90
2017-10-18T17:53:30.551Z,92.83
2017-10-18T17:55:56.633Z,70.80
2017-10-18T17:58:22.717Z,61.50
2017-10-18T18:00:48.839Z,101.90
2017-10-18T18:03:15.025Z,85.97
2017-10-18T18:05:41.208Z,66.33
2017-10-18T18:08:07.315Z,70.27
2017-10-18T18:10:33.559Z,68.67
2017-10-18T18:12:59.681Z,74.60
2017-10-18T18:15:25.796Z,68.17
2017-10-18T18:17:51.947Z,71.87
2017-10-18T18:20:18.026Z,230.77
2017-10-18T18:22:44.968Z,77.27
2017-10-18T18:25:11.160Z,90.83
2017-10-18T18:27:37.252Z,78.17
2017-10-18T18:30:04.121Z,78.40
2017-10-18T18:32:31.860Z,80.97
2017-10-18T18:34:57.988Z,87.63
2017-10-18T18:37:24.118Z,111.77
2017-10-18T18:39:50.522Z,100.73
2017-10-18T18:42:17.384Z,115.27
2017-10-18T18:44:44.392Z,111.97
2017-10-18T18:49:43.658Z,87.57
2017-10-18T18:52:09.902Z,112.40
2017-10-18T18:54:36.742Z,99.20
2017-10-18T18:57:02.942Z,92.30
2017-10-18T18:59:29.058Z,92.10
2017-10-18T19:01:55.319Z,79.90
2017-10-18T19:04:21.440Z,80.83
2017-10-18T19:06:47.595Z,85.43
2017-10-18T19:09:13.691Z,72.13
2017-10-18T19:11:39.823Z,93.07
2017-10-18T19:14:05.982Z,78.13
2017-10-18T19:16:32.878Z,83.60
2017-10-18T19:18:58.980Z,75.43
2017-10-18T19:21:25.852Z,85.73
2017-10-18T19:23:52.100Z,77.03
2017-10-18T19:26:18.205Z,75.47
2017-10-18T19:28:44.357Z,78.73
2017-10-18T19:31:10.513Z,79.27
2017-10-18T19:33:36.599Z,76.03
2017-10-18T19:36:02.693Z,70.73
2017-10-18T19:38:28.818Z,77.20
2017-10-18T19:40:54.950Z,77.10
2017-10-18T19:43:21.049Z,90.37
2017-10-18T19:45:47.163Z,74.93
2017-10-18T19:48:13.245Z,73.73
2017-10-18T19:50:39.460Z,80.27
2017-10-18T19:53:05.594Z,76.50
2017-10-18T19:55:31.931Z,65.43
2017-10-18T19:57:58.112Z,74.47
2017-10-18T20:00:24.285Z,59.00
2017-10-18T20:02:50.372Z,78.47
2017-10-18T20:05:16.494Z,74.77
2017-10-18T20:07:42.604Z,72.60
2017-10-18T20:10:08.704Z,74.37
2017-10-18T20:12:35.562Z,78.57
2017-10-18T20:15:01.720Z,83.90
2017-10-18T20:17:27.827Z,85.80
2017-10-18T20:19:54.096Z,82.93
2017-10-18T20:22:20.318Z,99.63
2017-10-18T20:24:47.153Z,66.63
2017-10-18T20:27:14.057Z,65.43
2017-10-18T20:29:40.211Z,77.17
2017-10-18T20:32:06.347Z,59.53
2017-10-18T20:34:32.466Z,71.10
2017-10-18T20:36:59.327Z,58.63
2017-10-18T20:39:27.752Z,55.23
2017-10-18T20:41:54.691Z,59.80
2017-10-18T20:44:20.790Z,64.37
2017-10-18T20:46:46.894Z,68.13
2017-10-18T20:49:12.998Z,58.93
2017-10-18T20:51:39.080Z,56.30
2017-10-18T20:54:05.207Z,58.23
2017-10-18T20:56:31.301Z,58.40
2017-10-18T20:58:57.407Z,73.33
2017-10-18T21:01:24.273Z,59.20
2017-10-18T21:03:50.429Z,69.57
2017-10-18T21:06:16.514Z,60.53
2017-10-18T21:08:42.621Z,56.50
2017-10-18T21:11:08.768Z,61.53
2017-10-18T21:13:34.849Z,58.33
2017-10-18T21:16:01.718Z,60.17
2017-10-18T21:18:27.817Z,79.27
2017-10-18T21:20:53.953Z,68.33
2017-10-18T21:23:20.102Z,58.13
2017-10-18T21:25:46.217Z,69.83
2017-10-18T21:28:12.302Z,65.33
2017-10-18T21:30:39.198Z,68.77
2017-10-18T21:33:05.303Z,68.63
2017-10-18T21:35:31.383Z,77.27
2017-10-18T21:37:57.506Z,73.20
2017-10-18T21:40:23.626Z,65.93
2017-10-18T21:42:49.705Z,71.97
2017-10-18T21:45:15.965Z,71.40
2017-10-18T21:47:42.040Z,82.30
2017-10-18T21:50:08.099Z,58.73
2017-10-18T21:52:34.252Z,66.80
2017-10-18T21:55:00.355Z,105.17
2017-10-18T21:57:26.470Z,95.87
2017-10-18T21:59:53.355Z,79.73
2017-10-18T22:02:19.446Z,74.53
2017-10-18T22:04:45.538Z,67.30
2017-10-18T22:07:11.641Z,80.13
2017-10-18T22:09:38.474Z,77.70
2017-10-18T22:12:04.574Z,65.73
2017-10-18T22:14:30.711Z,63.40
2017-10-18T22:16:56.826Z,76.23
2017-10-18T22:19:22.938Z,60.53
2017-10-18T22:21:49.778Z,68.37
2017-10-18T22:24:15.977Z,58.53
2017-10-18T22:26:42.058Z,60.30
2017-10-18T22:29:08.211Z,62.13
2017-10-18T22:31:34.389Z,62.33
2017-10-18T22:34:00.467Z,65.57
2017-10-18T22:36:26.724Z,71.47
2017-10-18T22:38:53.663Z,66.03
2017-10-18T22:41:19.861Z,75.80
2017-10-18T22:43:45.993Z,64.93
2017-10-18T22:46:12.074Z,72.13
2017-10-18T22:48:38.156Z,73.20
2017-10-18T22:51:05.007Z,78.77
2017-10-18T22:53:31.837Z,72.90
2017-10-18T22:55:58.208Z,67.73
2017-10-18T22:58:25.103Z,68.93
2017-10-18T23:00:51.194Z,72.97
2017-10-18T23:03:18.018Z,64.97
2017-10-18T23:05:44.664Z,68.03
2017-10-18T23:08:10.767Z,71.93
2017-10-18T23:10:36.841Z,72.70
2017-10-18T23:13:02.974Z,65.30
2017-10-18T23:15:29.056Z,76.90
2017-10-18T23:17:55.573Z,74.57
2017-10-18T23:20:22.438Z,74.67
2017-10-18T23:22:49.265Z,64.07
2017-10-18T23:25:15.349Z,71.17
2017-10-18T23:27:42.216Z,69.63
2017-10-18T23:30:08.302Z,70.93
2017-10-18T23:32:34.449Z,76.20
2017-10-18T23:35:00.546Z,74.67
2017-10-18T23:37:26.763Z,70.10
2017-10-18T23:39:52.989Z,79.10
2017-10-18T23:42:19.858Z,74.70
2017-10-18T23:44:45.933Z,82.03
2017-10-18T23:47:12.054Z,72.03
2017-10-18T23:49:38.158Z,102.03
2017-10-18T23:52:05.033Z,74.87
2017-10-18T23:54:31.177Z,83.90
2017-10-18T23:56:57.320Z,95.60
2017-10-18T23:59:23.487Z,89.23
